sensor_id;sensor_type;location;lat;lon;timestamp;pressure;altitude;pressure_sealevel;temperature;humidity
77047;BME280;65977;56.380;44.022;2023-04-07T00:01:37;101799.44;;;3.91;40.11
77047;BME280;65977;56.380;44.022;2023-04-07T00:04:04;101797.81;;;3.89;40.10
77047;BME280;65977;56.380;44.022;2023-04-07T00:06:31;101796.16;;;3.86;40.33
77047;BME280;65977;56.380;44.022;2023-04-07T00:08:58;101805.78;;;3.84;40.24
77047;BME280;65977;56.380;44.022;2023-04-07T00:11:25;101798.09;;;3.81;40.19
77047;BME280;65977;56.380;44.022;2023-04-07T00:13:52;101807.72;;;3.79;40.58
77047;BME280;65977;56.380;44.022;2023-04-07T00:16:20;101809.53;;;3.78;40.39
77047;BME280;65977;56.380;44.022;2023-04-07T00:18:47;101807.81;;;3.77;40.41
77047;BME280;65977;56.380;44.022;2023-04-07T00:21:14;101806.16;;;3.75;40.88
77047;BME280;65977;56.380;44.022;2023-04-07T00:23:41;101813.09;;;3.76;40.74
77047;BME280;65977;56.380;44.022;2023-04-07T00:26:08;101816.63;;;3.75;40.88
77047;BME280;65977;56.380;44.022;2023-04-07T00:28:35;101813.13;;;3.74;40.70
77047;BME280;65977;56.380;44.022;2023-04-07T00:31:02;101814.00;;;3.75;40.43
77047;BME280;65977;56.380;44.022;2023-04-07T00:33:29;101810.69;;;3.70;41.43
77047;BME280;65977;56.380;44.022;2023-04-07T00:35:57;101824.53;;;3.73;40.74
77047;BME280;65977;56.380;44.022;2023-04-07T00:38:24;101826.22;;;3.74;40.60
77047;BME280;65977;56.380;44.022;2023-04-07T00:40:58;101824.53;;;3.73;40.77
77047;BME280;65977;56.380;44.022;2023-04-07T00:43:25;101837.59;;;3.73;41.12
77047;BME280;65977;56.380;44.022;2023-04-07T00:45:53;101832.41;;;3.72;41.10
77047;BME280;65977;56.380;44.022;2023-04-07T00:48:20;101830.75;;;3.69;40.89
77047;BME280;65977;56.380;44.022;2023-04-07T00:50:47;101835.00;;;3.72;41.12
77047;BME280;65977;56.380;44.022;2023-04-07T00:53:15;101835.97;;;3.69;41.49
77047;BME280;65977;56.380;44.022;2023-04-07T00:55:42;101836.06;;;3.68;40.83
77047;BME280;65977;56.380;44.022;2023-04-07T00:58:09;101838.78;;;3.65;41.05
77047;BME280;65977;56.380;44.022;2023-04-07T01:03:35;101841.38;;;3.65;41.00
77047;BME280;65977;56.380;44.022;2023-04-07T01:06:05;101838.84;;;3.63;41.02
77047;BME280;65977;56.380;44.022;2023-04-07T01:11:24;101841.59;;;3.59;41.52
77047;BME280;65977;56.380;44.022;2023-04-07T01:13:54;101838.19;;;3.57;41.53
77047;BME280;65977;56.380;44.022;2023-04-07T01:16:29;101850.53;;;3.53;41.51
77047;BME280;65977;56.380;44.022;2023-04-07T01:19:01;101836.72;;;3.50;41.65
77047;BME280;65977;56.380;44.022;2023-04-07T01:21:33;101842.13;;;3.45;41.47
77047;BME280;65977;56.380;44.022;2023-04-07T01:26:43;101851.00;;;3.40;41.73
77047;BME280;65977;56.380;44.022;2023-04-07T01:29:38;101845.03;;;3.36;42.00
77047;BME280;65977;56.380;44.022;2023-04-07T01:32:11;101852.19;;;3.31;41.45
77047;BME280;65977;56.380;44.022;2023-04-07T01:34:39;101857.50;;;3.28;41.97
77047;BME280;65977;56.380;44.022;2023-04-07T01:37:07;101858.53;;;3.24;41.81
77047;BME280;65977;56.380;44.022;2023-04-07T01:39:36;101858.63;;;3.21;41.98
77047;BME280;65977;56.380;44.022;2023-04-07T01:42:05;101857.91;;;3.17;42.36
77047;BME280;65977;56.380;44.022;2023-04-07T01:44:33;101850.25;;;3.11;42.15
77047;BME280;65977;56.380;44.022;2023-04-07T01:47:01;101859.94;;;3.08;41.86
77047;BME280;65977;56.380;44.022;2023-04-07T01:49:29;101863.41;;;3.08;42.37
77047;BME280;65977;56.380;44.022;2023-04-07T01:51:58;101872.22;;;3.06;42.11
77047;BME280;65977;56.380;44.022;2023-04-07T01:54:27;101871.47;;;3.02;42.07
77047;BME280;65977;56.380;44.022;2023-04-07T01:56:54;101865.66;;;2.94;41.95
77047;BME280;65977;56.380;44.022;2023-04-07T01:59:22;101865.66;;;2.94;42.27
77047;BME280;65977;56.380;44.022;2023-04-07T02:01:49;101877.03;;;2.92;42.68
77047;BME280;65977;56.380;44.022;2023-04-07T02:04:31;101877.22;;;2.87;42.36
77047;BME280;65977;56.380;44.022;2023-04-07T02:07:08;101877.31;;;2.83;42.85
77047;BME280;65977;56.380;44.022;2023-04-07T02:09:39;101875.63;;;2.82;42.65
77047;BME280;65977;56.380;44.022;2023-04-07T02:12:08;101869.03;;;2.70;43.00
77047;BME280;65977;56.380;44.022;2023-04-07T02:14:37;101878.44;;;2.76;42.85
77047;BME280;65977;56.380;44.022;2023-04-07T02:17:07;101882.84;;;2.74;42.99
77047;BME280;65977;56.380;44.022;2023-04-07T02:19:35;101886.41;;;2.71;42.75
77047;BME280;65977;56.380;44.022;2023-04-07T02:22:04;101886.44;;;2.70;42.86
77047;BME280;65977;56.380;44.022;2023-04-07T02:24:32;101894.34;;;2.68;43.26
77047;BME280;65977;56.380;44.022;2023-04-07T02:26:59;101900.41;;;2.69;43.04
77047;BME280;65977;56.380;44.022;2023-04-07T02:29:29;101894.34;;;2.68;43.01
77047;BME280;65977;56.380;44.022;2023-04-07T02:31:56;101897.81;;;2.69;42.98
77047;BME280;65977;56.380;44.022;2023-04-07T02:34:24;101898.66;;;2.69;43.22
77047;BME280;65977;56.380;44.022;2023-04-07T02:36:51;101908.16;;;2.72;42.81
77047;BME280;65977;56.380;44.022;2023-04-07T02:39:18;101908.09;;;2.73;43.23
77047;BME280;65977;56.380;44.022;2023-04-07T02:41:45;101906.38;;;2.72;43.04
77047;BME280;65977;56.380;44.022;2023-04-07T02:44:12;101913.16;;;2.78;42.94
77047;BME280;65977;56.380;44.022;2023-04-07T02:46:39;101905.41;;;2.76;42.69
77047;BME280;65977;56.380;44.022;2023-04-07T02:49:07;101913.84;;;2.84;43.23
77047;BME280;65977;56.380;44.022;2023-04-07T02:51:34;101914.63;;;2.86;43.06
77047;BME280;65977;56.380;44.022;2023-04-07T02:54:01;101917.88;;;2.93;42.55
77047;BME280;65977;56.380;44.022;2023-04-07T02:56:28;101921.97;;;3.01;42.72
77047;BME280;65977;56.380;44.022;2023-04-07T02:58:55;101922.63;;;3.08;42.72
77047;BME280;65977;56.380;44.022;2023-04-07T03:01:22;101913.00;;;3.10;42.64
77047;BME280;65977;56.380;44.022;2023-04-07T03:03:49;101922.22;;;3.20;42.54
77047;BME280;65977;56.380;44.022;2023-04-07T03:06:17;101927.19;;;3.28;42.10
77047;BME280;65977;56.380;44.022;2023-04-07T03:08:44;101930.44;;;3.34;41.80
77047;BME280;65977;56.380;44.022;2023-04-07T03:11:11;101927.56;;;3.42;42.41
77047;BME280;65977;56.380;44.022;2023-04-07T03:13:41;101922.88;;;3.51;42.08
77047;BME280;65977;56.380;44.022;2023-04-07T03:16:08;101933.81;;;3.62;41.72
77047;BME280;65977;56.380;44.022;2023-04-07T03:18:35;101936.97;;;3.72;41.72
77047;BME280;65977;56.380;44.022;2023-04-07T03:21:02;101933.19;;;3.80;41.26
77047;BME280;65977;56.380;44.022;2023-04-07T03:23:29;101931.00;;;3.92;41.29
77047;BME280;65977;56.380;44.022;2023-04-07T03:25:56;101934.84;;;4.06;40.80
77047;BME280;65977;56.380;44.022;2023-04-07T03:28:23;101942.19;;;4.20;40.49
77047;BME280;65977;56.380;44.022;2023-04-07T03:30:51;101941.69;;;4.33;40.10
77047;BME280;65977;56.380;44.022;2023-04-07T03:33:18;101937.56;;;4.50;39.89
77047;BME280;65977;56.380;44.022;2023-04-07T03:35:46;101941.13;;;4.70;40.16
77047;BME280;65977;56.380;44.022;2023-04-07T03:38:13;101939.47;;;4.89;39.47
77047;BME280;65977;56.380;44.022;2023-04-07T03:40:40;101940.41;;;5.08;38.94
77047;BME280;65977;56.380;44.022;2023-04-07T03:43:07;101926.88;;;5.19;38.64
77047;BME280;65977;56.380;44.022;2023-04-07T03:45:38;101942.19;;;5.50;37.94
77047;BME280;65977;56.380;44.022;2023-04-07T03:48:05;101937.94;;;5.67;37.77
77047;BME280;65977;56.380;44.022;2023-04-07T03:50:37;101944.81;;;5.90;37.38
77047;BME280;65977;56.380;44.022;2023-04-07T03:53:05;101945.00;;;6.06;36.95
77047;BME280;65977;56.380;44.022;2023-04-07T03:55:33;101941.56;;;6.24;36.36
77047;BME280;65977;56.380;44.022;2023-04-07T03:58:00;101952.97;;;6.42;36.28
77047;BME280;65977;56.380;44.022;2023-04-07T04:00:27;101942.63;;;6.57;36.15
77047;BME280;65977;56.380;44.022;2023-04-07T04:02:54;101953.19;;;6.74;35.55
77047;BME280;65977;56.380;44.022;2023-04-07T04:05:22;101948.13;;;6.88;35.25
77047;BME280;65977;56.380;44.022;2023-04-07T04:07:49;101950.94;;;7.03;34.83
77047;BME280;65977;56.380;44.022;2023-04-07T04:10:19;101958.78;;;7.21;34.64
77047;BME280;65977;56.380;44.022;2023-04-07T04:12:46;101953.44;;;7.40;34.40
77047;BME280;65977;56.380;44.022;2023-04-07T04:15:14;101956.72;;;7.62;33.93
77047;BME280;65977;56.380;44.022;2023-04-07T04:17:42;101962.38;;;8.04;33.53
77047;BME280;65977;56.380;44.022;2023-04-07T04:20:09;101966.59;;;8.72;32.54
77047;BME280;65977;56.380;44.022;2023-04-07T04:22:36;101965.34;;;10.69;30.20
77047;BME280;65977;56.380;44.022;2023-04-07T04:25:04;101950.19;;;14.49;25.23
77047;BME280;65977;56.380;44.022;2023-04-07T04:27:31;101958.78;;;17.97;20.87
77047;BME280;65977;56.380;44.022;2023-04-07T04:29:58;101951.72;;;20.86;17.91
77047;BME280;65977;56.380;44.022;2023-04-07T04:32:25;101956.63;;;23.28;15.40
77047;BME280;65977;56.380;44.022;2023-04-07T04:34:52;101953.09;;;25.26;13.62
77047;BME280;65977;56.380;44.022;2023-04-07T04:37:19;101955.16;;;27.10;12.40
77047;BME280;65977;56.380;44.022;2023-04-07T04:39:46;101977.44;;;28.69;11.31
77047;BME280;65977;56.380;44.022;2023-04-07T04:42:13;101964.91;;;30.18;10.03
77047;BME280;65977;56.380;44.022;2023-04-07T04:44:40;101965.00;;;31.55;9.12
77047;BME280;65977;56.380;44.022;2023-04-07T04:47:07;101977.91;;;32.75;8.15
77047;BME280;65977;56.380;44.022;2023-04-07T04:49:34;101972.72;;;33.80;7.90
77047;BME280;65977;56.380;44.022;2023-04-07T04:52:06;101979.97;;;34.84;7.10
77047;BME280;65977;56.380;44.022;2023-04-07T04:54:34;101979.47;;;35.73;6.32
77047;BME280;65977;56.380;44.022;2023-04-07T04:57:01;101979.19;;;36.48;6.34
77047;BME280;65977;56.380;44.022;2023-04-07T04:59:28;101984.63;;;37.20;6.22
77047;BME280;65977;56.380;44.022;2023-04-07T05:01:56;101989.94;;;37.72;4.91
77047;BME280;65977;56.380;44.022;2023-04-07T05:04:23;101979.41;;;38.04;5.35
77047;BME280;65977;56.380;44.022;2023-04-07T05:06:50;101978.25;;;38.35;5.34
77047;BME280;65977;56.380;44.022;2023-04-07T05:09:17;101980.38;;;38.58;5.08
77047;BME280;65977;56.380;44.022;2023-04-07T05:11:44;101985.69;;;38.99;4.49
77047;BME280;65977;56.380;44.022;2023-04-07T05:14:11;101984.81;;;39.47;4.39
77047;BME280;65977;56.380;44.022;2023-04-07T05:16:38;101978.41;;;39.86;4.53
77047;BME280;65977;56.380;44.022;2023-04-07T05:19:06;101987.88;;;40.08;4.06
77047;BME280;65977;56.380;44.022;2023-04-07T05:21:32;101983.25;;;40.27;3.95
77047;BME280;65977;56.380;44.022;2023-04-07T05:23:59;101983.81;;;40.48;3.93
77047;BME280;65977;56.380;44.022;2023-04-07T05:26:27;101982.13;;;40.71;3.92
77047;BME280;65977;56.380;44.022;2023-04-07T05:28:54;101993.28;;;41.08;3.56
77047;BME280;65977;56.380;44.022;2023-04-07T05:31:21;101988.69;;;41.36;3.65
77047;BME280;65977;56.380;44.022;2023-04-07T05:33:48;101990.72;;;41.49;3.56
77047;BME280;65977;56.380;44.022;2023-04-07T05:36:15;101999.94;;;41.44;2.91
77047;BME280;65977;56.380;44.022;2023-04-07T05:38:42;101995.38;;;41.35;3.42
77047;BME280;65977;56.380;44.022;2023-04-07T05:41:09;101997.78;;;41.41;3.25
77047;BME280;65977;56.380;44.022;2023-04-07T05:43:36;102001.63;;;41.59;2.99
77047;BME280;65977;56.380;44.022;2023-04-07T05:46:03;102000.88;;;41.72;2.83
77047;BME280;65977;56.380;44.022;2023-04-07T05:48:31;102002.34;;;41.83;2.83
77047;BME280;65977;56.380;44.022;2023-04-07T05:50:58;102007.56;;;41.71;2.89
77047;BME280;65977;56.380;44.022;2023-04-07T05:53:24;102002.22;;;41.75;3.20
77047;BME280;65977;56.380;44.022;2023-04-07T05:55:51;102002.47;;;41.92;3.14
77047;BME280;65977;56.380;44.022;2023-04-07T05:58:18;102009.91;;;42.24;2.93
77047;BME280;65977;56.380;44.022;2023-04-07T06:00:46;102009.31;;;42.67;2.66
77047;BME280;65977;56.380;44.022;2023-04-07T06:03:13;102001.84;;;42.90;2.74
77047;BME280;65977;56.380;44.022;2023-04-07T06:05:40;102005.78;;;42.89;2.62
77047;BME280;65977;56.380;44.022;2023-04-07T06:08:09;102001.00;;;42.90;2.63
77047;BME280;65977;56.380;44.022;2023-04-07T06:10:36;102003.91;;;42.98;2.66
77047;BME280;65977;56.380;44.022;2023-04-07T06:13:03;101995.44;;;43.03;2.39
77047;BME280;65977;56.380;44.022;2023-04-07T06:15:30;102004.75;;;43.21;2.38
77047;BME280;65977;56.380;44.022;2023-04-07T06:17:57;102011.31;;;43.38;2.58
77047;BME280;65977;56.380;44.022;2023-04-07T06:20:24;102003.53;;;43.49;2.59
77047;BME280;65977;56.380;44.022;2023-04-07T06:22:53;102008.00;;;43.59;2.46
77047;BME280;65977;56.380;44.022;2023-04-07T06:25:20;102003.94;;;43.65;1.90
77047;BME280;65977;56.380;44.022;2023-04-07T06:27:47;102009.38;;;43.70;2.08
77047;BME280;65977;56.380;44.022;2023-04-07T06:30:15;102017.88;;;43.87;2.17
77047;BME280;65977;56.380;44.022;2023-04-07T06:32:42;102015.78;;;43.92;1.85
77047;BME280;65977;56.380;44.022;2023-04-07T06:35:09;102003.09;;;43.86;2.27
77047;BME280;65977;56.380;44.022;2023-04-07T06:37:36;102011.31;;;43.91;1.64
77047;BME280;65977;56.380;44.022;2023-04-07T06:40:06;102010.09;;;44.06;2.08
77047;BME280;65977;56.380;44.022;2023-04-07T06:42:33;102011.03;;;44.24;1.59
77047;BME280;65977;56.380;44.022;2023-04-07T06:45:00;102004.72;;;44.49;1.83
77047;BME280;65977;56.380;44.022;2023-04-07T06:47:28;102002.31;;;44.65;1.39
77047;BME280;65977;56.380;44.022;2023-04-07T06:49:55;102012.16;;;44.79;1.28
77047;BME280;65977;56.380;44.022;2023-04-07T06:52:22;102006.94;;;44.78;1.30
77047;BME280;65977;56.380;44.022;2023-04-07T06:54:49;102001.66;;;44.76;1.53
77047;BME280;65977;56.380;44.022;2023-04-07T06:57:16;102011.41;;;44.87;1.33
77047;BME280;65977;56.380;44.022;2023-04-07T06:59:44;102007.13;;;45.07;1.82
77047;BME280;65977;56.380;44.022;2023-04-07T07:02:11;102016.00;;;45.26;0.89
77047;BME280;65977;56.380;44.022;2023-04-07T07:04:38;102020.41;;;45.44;0.89
77047;BME280;65977;56.380;44.022;2023-04-07T07:07:05;102007.91;;;45.67;1.71
77047;BME280;65977;56.380;44.022;2023-04-07T07:09:36;102015.22;;;46.06;0.99
77047;BME280;65977;56.380;44.022;2023-04-07T07:12:03;102017.41;;;46.30;0.42
77047;BME280;65977;56.380;44.022;2023-04-07T07:14:32;102021.28;;;46.46;0.45
77047;BME280;65977;56.380;44.022;2023-04-07T07:16:59;102022.28;;;46.50;0.68
77047;BME280;65977;56.380;44.022;2023-04-07T07:19:26;102019.00;;;46.48;1.00
77047;BME280;65977;56.380;44.022;2023-04-07T07:21:53;102022.28;;;46.50;1.19
77047;BME280;65977;56.380;44.022;2023-04-07T07:24:21;102015.50;;;46.51;1.36
77047;BME280;65977;56.380;44.022;2023-04-07T07:26:48;102022.53;;;46.57;0.43
77047;BME280;65977;56.380;44.022;2023-04-07T07:29:16;102016.06;;;46.65;1.23
77047;BME280;65977;56.380;44.022;2023-04-07T07:31:43;102008.16;;;46.38;1.13
77047;BME280;65977;56.380;44.022;2023-04-07T07:34:10;102017.84;;;46.40;0.79
77047;BME280;65977;56.380;44.022;2023-04-07T07:36:37;102014.91;;;46.46;0.63
77047;BME280;65977;56.380;44.022;2023-04-07T07:39:04;102006.03;;;46.35;0.95
77047;BME280;65977;56.380;44.022;2023-04-07T07:41:31;102007.53;;;46.32;0.72
77047;BME280;65977;56.380;44.022;2023-04-07T07:43:58;102012.97;;;46.29;0.79
77047;BME280;65977;56.380;44.022;2023-04-07T07:46:25;102013.28;;;46.36;0.63
77047;BME280;65977;56.380;44.022;2023-04-07T07:48:53;102019.19;;;46.34;0.27
77047;BME280;65977;56.380;44.022;2023-04-07T07:51:21;102017.84;;;46.40;0.85
77047;BME280;65977;56.380;44.022;2023-04-07T07:53:48;102023.38;;;46.58;0.40
77047;BME280;65977;56.380;44.022;2023-04-07T07:56:15;102003.06;;;46.40;0.62
77047;BME280;65977;56.380;44.022;2023-04-07T07:58:43;102011.47;;;46.40;0.90
77047;BME280;65977;56.380;44.022;2023-04-07T08:01:10;102016.03;;;46.45;0.76
77047;BME280;65977;56.380;44.022;2023-04-07T08:03:37;102006.97;;;46.48;1.00
77047;BME280;65977;56.380;44.022;2023-04-07T08:06:04;102002.19;;;46.69;0.56
77047;BME280;65977;56.380;44.022;2023-04-07T08:08:32;102017.84;;;46.78;0.67
77047;BME280;65977;56.380;44.022;2023-04-07T08:10:59;102020.84;;;46.65;0.19
77047;BME280;65977;56.380;44.022;2023-04-07T08:13:26;102009.69;;;46.56;0.35
77047;BME280;65977;56.380;44.022;2023-04-07T08:15:53;102012.31;;;46.61;0.59
77047;BME280;65977;56.380;44.022;2023-04-07T08:18:20;102015.88;;;46.70;0.62
77047;BME280;65977;56.380;44.022;2023-04-07T08:20:47;102000.63;;;46.88;0.27
77047;BME280;65977;56.380;44.022;2023-04-07T08:23:14;102020.22;;;46.88;0.67
77047;BME280;65977;56.380;44.022;2023-04-07T08:25:41;102015.31;;;46.85;0.67
77047;BME280;65977;56.380;44.022;2023-04-07T08:28:09;102010.91;;;46.96;0.51
77047;BME280;65977;56.380;44.022;2023-04-07T08:30:36;102014.88;;;47.37;0.72
77047;BME280;65977;56.380;44.022;2023-04-07T08:33:04;102010.75;;;47.55;0.32
77047;BME280;65977;56.380;44.022;2023-04-07T08:35:32;102008.44;;;47.69;0.00
77047;BME280;65977;56.380;44.022;2023-04-07T08:37:59;102007.72;;;47.60;0.14
77047;BME280;65977;56.380;44.022;2023-04-07T08:40:29;102003.78;;;47.40;0.00
77047;BME280;65977;56.380;44.022;2023-04-07T08:42:59;101995.78;;;47.51;0.11
77047;BME280;65977;56.380;44.022;2023-04-07T08:45:26;102009.13;;;47.54;0.43
77047;BME280;65977;56.380;44.022;2023-04-07T08:47:55;101999.84;;;47.86;0.22
77047;BME280;65977;56.380;44.022;2023-04-07T08:50:25;101999.63;;;48.03;0.10
77047;BME280;65977;56.380;44.022;2023-04-07T08:52:55;102008.47;;;48.26;0.00
77047;BME280;65977;56.380;44.022;2023-04-07T08:55:23;101994.16;;;48.43;0.00
77047;BME280;65977;56.380;44.022;2023-04-07T08:57:52;101994.75;;;48.49;0.00
77047;BME280;65977;56.380;44.022;2023-04-07T09:00:20;102001.63;;;48.75;0.00
77047;BME280;65977;56.380;44.022;2023-04-07T09:02:47;102001.84;;;48.70;0.00
77047;BME280;65977;56.380;44.022;2023-04-07T09:05:15;102004.00;;;48.61;0.00
77047;BME280;65977;56.380;44.022;2023-04-07T09:07:42;102003.88;;;48.46;0.00
77047;BME280;65977;56.380;44.022;2023-04-07T09:10:09;102002.34;;;48.24;0.00
77047;BME280;65977;56.380;44.022;2023-04-07T09:12:38;102009.78;;;47.84;0.00
77047;BME280;65977;56.380;44.022;2023-04-07T09:15:06;102006.53;;;47.82;0.00
77047;BME280;65977;56.380;44.022;2023-04-07T09:17:33;101997.78;;;47.95;0.00
77047;BME280;65977;56.380;44.022;2023-04-07T09:20:01;102002.66;;;47.98;0.00
77047;BME280;65977;56.380;44.022;2023-04-07T09:22:38;102000.69;;;47.87;0.00
77047;BME280;65977;56.380;44.022;2023-04-07T09:25:24;101994.44;;;47.69;0.00
77047;BME280;65977;56.380;44.022;2023-04-07T09:27:58;101994.06;;;47.71;0.00
77047;BME280;65977;56.380;44.022;2023-04-07T09:30:31;102000.22;;;47.85;0.00
77047;BME280;65977;56.380;44.022;2023-04-07T09:32:59;101982.63;;;47.76;0.00
77047;BME280;65977;56.380;44.022;2023-04-07T09:35:27;101985.75;;;47.83;0.00
77047;BME280;65977;56.380;44.022;2023-04-07T09:38:02;101995.66;;;47.92;0.00
77047;BME280;65977;56.380;44.022;2023-04-07T09:40:30;101984.44;;;48.04;0.00
77047;BME280;65977;56.380;44.022;2023-04-07T09:42:58;101983.41;;;48.09;0.00
77047;BME280;65977;56.380;44.022;2023-04-07T09:45:30;101980.03;;;48.15;0.09
77047;BME280;65977;56.380;44.022;2023-04-07T09:48:06;101981.78;;;48.08;0.00
77047;BME280;65977;56.380;44.022;2023-04-07T09:50:38;101982.09;;;47.82;0.00
77047;BME280;65977;56.380;44.022;2023-04-07T09:53:05;101994.44;;;47.69;0.00
77047;BME280;65977;56.380;44.022;2023-04-07T09:55:32;101979.56;;;47.44;0.00
77047;BME280;65977;56.380;44.022;2023-04-07T09:58:03;101985.28;;;47.27;0.00
77047;BME280;65977;56.380;44.022;2023-04-07T10:00:30;101979.78;;;47.19;0.00
77047;BME280;65977;56.380;44.022;2023-04-07T10:02:58;101980.94;;;47.18;0.00
77047;BME280;65977;56.380;44.022;2023-04-07T10:05:26;101982.16;;;46.87;0.00
77047;BME280;65977;56.380;44.022;2023-04-07T10:07:54;101987.47;;;46.60;0.00
77047;BME280;65977;56.380;44.022;2023-04-07T10:10:22;101978.00;;;46.44;0.00
77047;BME280;65977;56.380;44.022;2023-04-07T10:12:51;101967.94;;;46.51;0.00
77047;BME280;65977;56.380;44.022;2023-04-07T10:15:20;101961.25;;;46.64;0.00
77047;BME280;65977;56.380;44.022;2023-04-07T10:17:48;101964.44;;;46.83;0.12
77047;BME280;65977;56.380;44.022;2023-04-07T10:20:19;101967.81;;;46.89;0.00
77047;BME280;65977;56.380;44.022;2023-04-07T10:22:48;101979.03;;;46.89;0.21
77047;BME280;65977;56.380;44.022;2023-04-07T10:25:18;101966.16;;;46.67;0.38
77047;BME280;65977;56.380;44.022;2023-04-07T10:27:56;101965.34;;;46.67;0.00
77047;BME280;65977;56.380;44.022;2023-04-07T10:30:27;101975.78;;;46.58;0.00
77047;BME280;65977;56.380;44.022;2023-04-07T10:32:55;101973.19;;;46.23;0.00
77047;BME280;65977;56.380;44.022;2023-04-07T10:35:23;101968.22;;;46.00;0.00
77047;BME280;65977;56.380;44.022;2023-04-07T10:38:09;101972.31;;;45.94;0.58
77047;BME280;65977;56.380;44.022;2023-04-07T10:40:37;101971.50;;;46.02;0.00
77047;BME280;65977;56.380;44.022;2023-04-07T10:43:05;101962.09;;;45.98;0.41
77047;BME280;65977;56.380;44.022;2023-04-07T10:48:15;101963.19;;;45.67;0.00
77047;BME280;65977;56.380;44.022;2023-04-07T10:50:44;101962.28;;;45.46;0.99
77047;BME280;65977;56.380;44.022;2023-04-07T10:53:13;101968.03;;;44.98;0.78
77047;BME280;65977;56.380;44.022;2023-04-07T10:55:41;101969.59;;;44.48;1.31
77047;BME280;65977;56.380;44.022;2023-04-07T11:03:34;101965.31;;;44.42;0.73
77047;BME280;65977;56.380;44.022;2023-04-07T11:08:39;101974.44;;;44.25;1.53
77047;BME280;65977;56.380;44.022;2023-04-07T11:11:14;101967.97;;;44.08;0.91
77047;BME280;65977;56.380;44.022;2023-04-07T11:13:43;101967.81;;;43.73;1.65
77047;BME280;65977;56.380;44.022;2023-04-07T11:16:11;101966.06;;;43.55;1.35
77047;BME280;65977;56.380;44.022;2023-04-07T11:18:39;101958.81;;;43.54;1.67
77047;BME280;65977;56.380;44.022;2023-04-07T11:21:07;101968.38;;;43.62;1.55
77047;BME280;65977;56.380;44.022;2023-04-07T11:23:38;101959.16;;;43.53;1.71
77047;BME280;65977;56.380;44.022;2023-04-07T11:26:08;101963.13;;;43.38;1.48
77047;BME280;65977;56.380;44.022;2023-04-07T11:28:50;101954.03;;;43.02;1.72
77047;BME280;65977;56.380;44.022;2023-04-07T11:31:26;101960.44;;;42.75;1.84
77047;BME280;65977;56.380;44.022;2023-04-07T11:33:59;101954.03;;;42.52;2.04
77047;BME280;65977;56.380;44.022;2023-04-07T11:36:32;101952.78;;;42.17;1.80
77047;BME280;65977;56.380;44.022;2023-04-07T11:39:00;101949.16;;;41.90;2.37
77047;BME280;65977;56.380;44.022;2023-04-07T11:41:29;101960.72;;;41.65;2.42
77047;BME280;65977;56.380;44.022;2023-04-07T11:44:09;101952.53;;;41.22;2.65
77047;BME280;65977;56.380;44.022;2023-04-07T11:46:57;101945.75;;;40.96;2.63
77047;BME280;65977;56.380;44.022;2023-04-07T11:49:26;101944.59;;;40.60;2.77
77047;BME280;65977;56.380;44.022;2023-04-07T11:52:00;101936.41;;;39.45;2.86
77047;BME280;65977;56.380;44.022;2023-04-07T11:54:46;101933.38;;;37.49;3.82
77047;BME280;65977;56.380;44.022;2023-04-07T11:57:13;101941.13;;;35.98;4.07
77047;BME280;65977;56.380;44.022;2023-04-07T11:59:40;101936.84;;;34.20;5.25
77047;BME280;65977;56.380;44.022;2023-04-07T12:02:08;101947.31;;;32.15;5.98
77047;BME280;65977;56.380;44.022;2023-04-07T12:04:36;101939.06;;;30.20;6.70
77047;BME280;65977;56.380;44.022;2023-04-07T12:07:07;101942.38;;;28.41;7.61
77047;BME280;65977;56.380;44.022;2023-04-07T12:09:36;101931.91;;;26.87;8.40
77047;BME280;65977;56.380;44.022;2023-04-07T12:12:04;101933.88;;;25.63;9.00
77047;BME280;65977;56.380;44.022;2023-04-07T12:14:33;101941.53;;;24.45;9.52
77047;BME280;65977;56.380;44.022;2023-04-07T12:17:00;101945.38;;;23.47;10.09
77047;BME280;65977;56.380;44.022;2023-04-07T12:19:31;101942.56;;;22.48;10.99
77047;BME280;65977;56.380;44.022;2023-04-07T12:22:02;101942.09;;;21.58;11.45
77047;BME280;65977;56.380;44.022;2023-04-07T12:24:29;101952.72;;;20.85;11.78
77047;BME280;65977;56.380;44.022;2023-04-07T12:26:58;101958.66;;;20.21;12.26
77047;BME280;65977;56.380;44.022;2023-04-07T12:29:25;101946.38;;;19.67;12.71
77047;BME280;65977;56.380;44.022;2023-04-07T12:31:52;101936.88;;;19.20;13.05
77047;BME280;65977;56.380;44.022;2023-04-07T12:34:19;101955.09;;;18.81;13.50
77047;BME280;65977;56.380;44.022;2023-04-07T12:36:47;101951.44;;;18.45;13.32
77047;BME280;65977;56.380;44.022;2023-04-07T12:39:15;101955.09;;;18.07;13.89
77047;BME280;65977;56.380;44.022;2023-04-07T12:41:42;101938.44;;;17.77;14.07
77047;BME280;65977;56.380;44.022;2023-04-07T12:44:11;101941.41;;;17.54;14.23
77047;BME280;65977;56.380;44.022;2023-04-07T12:46:39;101948.13;;;17.39;14.46
77047;BME280;65977;56.380;44.022;2023-04-07T12:49:06;101947.28;;;17.20;14.67
77047;BME280;65977;56.380;44.022;2023-04-07T12:51:33;101946.28;;;16.92;15.16
77047;BME280;65977;56.380;44.022;2023-04-07T12:54:00;101948.50;;;16.68;15.18
77047;BME280;65977;56.380;44.022;2023-04-07T12:56:27;101951.72;;;16.41;15.85
77047;BME280;65977;56.380;44.022;2023-04-07T12:58:54;101961.34;;;16.23;15.85
77047;BME280;65977;56.380;44.022;2023-04-07T13:01:21;101956.47;;;16.07;15.88
77047;BME280;65977;56.380;44.022;2023-04-07T13:03:49;101950.66;;;15.93;16.22
77047;BME280;65977;56.380;44.022;2023-04-07T13:06:17;101941.63;;;15.84;16.51
77047;BME280;65977;56.380;44.022;2023-04-07T13:08:45;101945.78;;;15.77;16.25
77047;BME280;65977;56.380;44.022;2023-04-07T13:11:12;101953.47;;;15.70;16.79
77047;BME280;65977;56.380;44.022;2023-04-07T13:13:39;101950.00;;;15.59;16.80